Time;durP1;ratioP1;P1;durP2;ratioP2;P2;SDS_P1;SDS_P2;PMS_P1;PMS_P2;Temp;Humidity;BMP_temperature;BMP_pressure;BME280_temperature;BME280_humidity;BME280_pressure;Samples;Min_cycle;Max_cycle;Signal;HPM_P1;HPM_P2
2023/04/11 00:01:39;;;;;;;1595.97;285.73;;;10.80;99.90;;;;;;5030099;28;20210;-54
2023/04/11 00:04:09;;;;;;;31.40;13.97;;;10.70;99.90;;;;;;5016561;28;20796;-54
2023/04/11 00:06:38;;;;;;;1339.27;178.80;;;10.70;99.90;;;;;;5030370;28;20214;-52
2023/04/11 00:09:06;;;;;;;751.37;109.27;;;10.70;99.90;;;;;;5029789;28;20308;-55
2023/04/11 00:11:35;;;;;;;482.63;72.00;;;10.60;99.90;;;;;;5029660;28;20222;-55
2023/04/11 00:14:04;;;;;;;459.63;79.60;;;10.50;99.90;;;;;;5029877;28;20308;-54
2023/04/11 00:16:33;;;;;;;692.87;113.07;;;10.40;99.90;;;;;;5029929;28;20301;-55
2023/04/11 00:19:01;;;;;;;856.47;145.67;;;10.40;99.90;;;;;;5030139;28;20621;-55
2023/04/11 00:21:29;;;;;;;1824.47;264.07;;;10.40;99.90;;;;;;5029911;28;20301;-54
2023/04/11 00:23:57;;;;;;;1372.73;177.93;;;10.40;99.90;;;;;;5029531;28;20280;-53
2023/04/11 00:26:25;;;;;;;1442.63;173.23;;;10.40;99.90;;;;;;5029979;28;20244;-53
2023/04/11 00:28:54;;;;;;;649.80;89.07;;;10.30;99.90;;;;;;5022812;28;20312;-55
2023/04/11 00:31:23;;;;;;;332.53;58.47;;;10.30;99.90;;;;;;5029391;28;20221;-53
2023/04/11 00:33:51;;;;;;;1516.60;270.30;;;10.30;99.90;;;;;;5029656;28;20226;-54
2023/04/11 00:36:19;;;;;;;493.60;71.87;;;10.30;99.90;;;;;;5029742;28;20301;-53
2023/04/11 00:38:47;;;;;;;475.93;70.80;;;10.30;99.90;;;;;;5029658;28;20224;-54
2023/04/11 00:41:15;;;;;;;876.77;196.00;;;10.30;99.90;;;;;;5029551;28;20256;-54
2023/04/11 00:43:43;;;;;;;288.03;43.13;;;10.30;99.90;;;;;;5014449;28;20672;-55
2023/04/11 00:46:13;;;;;;;583.93;89.40;;;10.30;99.90;;;;;;5022097;28;20737;-55
2023/04/11 00:48:42;;;;;;;654.90;100.40;;;10.30;99.90;;;;;;5026409;28;20762;-55
2023/04/11 00:51:10;;;;;;;847.63;147.43;;;10.20;99.90;;;;;;5027980;28;20233;-55
2023/04/11 00:53:38;;;;;;;288.23;64.90;;;10.20;99.90;;;;;;5029095;28;20257;-54
2023/04/11 00:56:07;;;;;;;1005.10;149.33;;;10.10;99.90;;;;;;5029212;28;20293;-54
2023/04/11 00:58:36;;;;;;;1087.40;139.67;;;10.10;99.90;;;;;;5028529;28;20238;-54
2023/04/11 01:01:08;;;;;;;409.37;76.50;;;10.10;99.90;;;;;;5028595;28;20238;-53
2023/04/11 01:03:40;;;;;;;311.97;53.90;;;10.10;99.90;;;;;;5015151;28;20723;-54
2023/04/11 01:06:10;;;;;;;579.60;94.80;;;10.10;99.90;;;;;;5028560;28;20849;-53
2023/04/11 01:08:39;;;;;;;704.17;122.60;;;10.10;99.90;;;;;;5027743;28;20309;-54
2023/04/11 01:11:09;;;;;;;827.77;124.50;;;10.00;99.90;;;;;;5028554;28;20691;-55
2023/04/11 01:13:41;;;;;;;741.57;105.80;;;10.00;99.90;;;;;;5028711;28;20380;-53
2023/04/11 01:16:09;;;;;;;815.23;144.13;;;10.00;99.90;;;;;;5028714;28;20237;-54
2023/04/11 01:18:39;;;;;;;1386.87;219.97;;;10.00;99.90;;;;;;5028729;28;20668;-54
2023/04/11 01:21:08;;;;;;;905.00;131.13;;;10.00;99.90;;;;;;5028340;28;20305;-54
2023/04/11 01:23:37;;;;;;;297.40;50.60;;;9.90;99.90;;;;;;5028745;28;20222;-54
2023/04/11 01:26:06;;;;;;;1590.57;238.80;;;9.90;99.90;;;;;;5021821;28;20243;-54
2023/04/11 01:28:34;;;;;;;785.17;148.73;;;9.80;99.90;;;;;;5028387;28;20675;-53
2023/04/11 01:31:02;;;;;;;438.83;89.07;;;9.80;99.90;;;;;;5028802;28;20233;-53
2023/04/11 01:33:30;;;;;;;702.47;97.40;;;9.70;99.90;;;;;;5028196;28;20708;-53
2023/04/11 01:35:59;;;;;;;150.40;39.90;;;9.70;99.90;;;;;;5028771;28;20321;-54
2023/04/11 01:38:27;;;;;;;395.40;76.67;;;9.70;99.90;;;;;;5026804;28;20202;-55
2023/04/11 01:40:58;;;;;;;180.27;36.00;;;9.70;99.90;;;;;;5028618;28;20224;-53
2023/04/11 01:43:26;;;;;;;691.43;125.67;;;9.70;99.90;;;;;;5023501;28;20280;-54
2023/04/11 01:45:55;;;;;;;870.57;125.50;;;9.70;99.90;;;;;;5027525;28;20720;-56
2023/04/11 01:48:23;;;;;;;1121.30;208.33;;;9.60;99.90;;;;;;5034923;28;20249;-53
2023/04/11 01:50:51;;;;;;;574.90;89.00;;;9.60;99.90;;;;;;5030864;28;20248;-53
2023/04/11 01:53:19;;;;;;;167.67;34.63;;;9.60;99.90;;;;;;5027930;28;20778;-54
2023/04/11 01:55:47;;;;;;;252.63;52.77;;;9.50;99.90;;;;;;5028428;28;20668;-53
2023/04/11 01:58:17;;;;;;;760.90;125.00;;;9.50;99.90;;;;;;5028026;28;20303;-54
2023/04/11 02:00:45;;;;;;;642.93;101.23;;;9.40;99.90;;;;;;5028114;28;20657;-53
2023/04/11 02:03:13;;;;;;;639.47;129.97;;;9.40;99.90;;;;;;5025029;28;20325;-54
2023/04/11 02:05:42;;;;;;;84.40;27.93;;;9.30;99.90;;;;;;5024388;28;20780;-53
2023/04/11 02:08:11;;;;;;;704.57;106.80;;;9.20;99.90;;;;;;5027435;28;20743;-52
2023/04/11 02:10:39;;;;;;;167.13;34.00;;;9.20;99.90;;;;;;5027759;28;20297;-54
2023/04/11 02:13:07;;;;;;;426.67;76.30;;;9.10;99.90;;;;;;5027829;28;20226;-54
2023/04/11 02:15:36;;;;;;;473.37;72.70;;;9.00;99.90;;;;;;5028107;28;20210;-53
2023/04/11 02:18:05;;;;;;;95.03;31.30;;;9.10;99.90;;;;;;5030462;28;20953;-55
2023/04/11 02:20:33;;;;;;;519.13;72.17;;;9.10;99.90;;;;;;5023815;28;20237;-54
2023/04/11 02:23:03;;;;;;;157.53;37.40;;;9.10;99.90;;;;;;5030616;28;20292;-53
2023/04/11 02:25:31;;;;;;;292.00;60.30;;;9.10;99.90;;;;;;5032025;28;20260;-54
2023/04/11 02:27:59;;;;;;;430.50;87.03;;;9.20;99.90;;;;;;5031270;28;20234;-54
2023/04/11 02:30:27;;;;;;;914.70;107.63;;;9.20;99.90;;;;;;5021879;28;20226;-55
2023/04/11 02:32:56;;;;;;;55.70;30.53;;;9.20;99.90;;;;;;5028633;28;20313;-54
2023/04/11 02:35:25;;;;;;;188.37;41.17;;;9.20;99.90;;;;;;5027632;28;20206;-54
2023/04/11 02:37:53;;;;;;;421.70;66.33;;;9.20;99.90;;;;;;5031668;28;20241;-53
2023/04/11 02:40:21;;;;;;;208.93;39.47;;;9.20;99.90;;;;;;5031485;28;20202;-53
2023/04/11 02:42:49;;;;;;;654.80;123.33;;;9.20;99.90;;;;;;5031735;28;20727;-54
2023/04/11 02:45:17;;;;;;;674.67;89.70;;;9.20;99.90;;;;;;5026298;28;20768;-53
2023/04/11 02:47:45;;;;;;;465.17;66.57;;;9.10;99.90;;;;;;5025909;28;20214;-53
2023/04/11 02:50:14;;;;;;;201.73;44.13;;;9.10;99.90;;;;;;5017486;28;20222;-53
2023/04/11 02:52:44;;;;;;;198.30;29.87;;;9.10;99.90;;;;;;5031637;28;20491;-53
2023/04/11 02:55:14;;;;;;;517.40;83.60;;;9.10;99.90;;;;;;5030004;28;20270;-54
2023/04/11 02:57:42;;;;;;;650.77;81.60;;;9.10;99.90;;;;;;5031339;28;20349;-53
2023/04/11 03:00:11;;;;;;;493.63;72.60;;;9.10;99.90;;;;;;5031409;28;20238;-54
2023/04/11 03:02:40;;;;;;;455.53;87.60;;;9.10;99.90;;;;;;5031044;28;20284;-53
2023/04/11 03:05:09;;;;;;;930.03;110.47;;;9.10;99.90;;;;;;5031403;28;20210;-54
2023/04/11 03:07:39;;;;;;;758.80;100.37;;;9.10;99.90;;;;;;5021196;28;20298;-54
2023/04/11 03:10:08;;;;;;;448.47;80.27;;;9.20;99.90;;;;;;5027508;28;20731;-53
2023/04/11 03:12:36;;;;;;;1999.90;269.07;;;9.20;99.90;;;;;;5016423;28;20234;-55
2023/04/11 03:15:05;;;;;;;291.03;59.93;;;9.10;99.90;;;;;;5028418;28;20237;-55
2023/04/11 03:17:33;;;;;;;554.73;91.37;;;9.10;99.90;;;;;;5030926;28;20353;-54
2023/04/11 03:20:05;;;;;;;429.83;52.43;;;9.10;99.90;;;;;;5031309;28;20202;-54
2023/04/11 03:22:34;;;;;;;369.40;63.30;;;9.10;99.90;;;;;;5030922;28;20720;-53
2023/04/11 03:25:03;;;;;;;260.10;40.20;;;9.00;99.90;;;;;;5031203;28;20206;-54
2023/04/11 03:27:31;;;;;;;175.20;27.87;;;9.00;99.90;;;;;;5030553;28;20289;-53
2023/04/11 03:29:59;;;;;;;350.47;60.03;;;9.00;99.90;;;;;;5030559;28;20651;-55
2023/04/11 03:32:27;;;;;;;248.33;49.60;;;9.00;99.90;;;;;;5030194;28;20296;-54
2023/04/11 03:34:55;;;;;;;361.37;65.53;;;9.00;99.90;;;;;;5029625;28;20237;-53
2023/04/11 03:37:23;;;;;;;1924.80;241.13;;;9.00;99.90;;;;;;5030886;28;20242;-54
2023/04/11 03:39:51;;;;;;;1444.13;157.13;;;8.90;99.90;;;;;;5030512;28;20249;-53
2023/04/11 03:42:21;;;;;;;1270.07;150.03;;;8.90;99.90;;;;;;5030486;28;20293;-55
2023/04/11 03:44:49;;;;;;;1999.90;249.63;;;8.90;99.90;;;;;;5030235;28;20210;-53
2023/04/11 03:47:17;;;;;;;221.53;45.60;;;8.90;99.90;;;;;;5030435;28;20245;-54
2023/04/11 03:49:45;;;;;;;870.73;129.70;;;8.90;99.90;;;;;;5030556;28;20342;-54
2023/04/11 03:52:13;;;;;;;929.87;122.63;;;8.90;99.90;;;;;;5030588;28;20296;-53
2023/04/11 03:54:41;;;;;;;1123.93;110.23;;;8.90;99.90;;;;;;5030494;28;20214;-53
2023/04/11 03:57:11;;;;;;;646.13;87.93;;;8.90;99.90;;;;;;5021294;28;20210;-53
2023/04/11 03:59:41;;;;;;;524.43;88.40;;;8.80;99.90;;;;;;5030190;28;20237;-53
2023/04/11 04:02:09;;;;;;;576.80;103.47;;;8.80;99.90;;;;;;5026683;28;20750;-54
2023/04/11 04:04:37;;;;;;;49.40;23.83;;;8.80;99.90;;;;;;5024649;28;20206;-54
2023/04/11 04:07:08;;;;;;;123.13;19.67;;;8.70;99.90;;;;;;5025479;28;20213;-54
2023/04/11 04:09:37;;;;;;;383.80;56.93;;;8.70;99.90;;;;;;5029864;28;20226;-53
2023/04/11 04:12:05;;;;;;;343.67;56.03;;;8.70;99.90;;;;;;5029450;28;20220;-54
2023/04/11 04:14:33;;;;;;;100.33;30.70;;;8.70;99.90;;;;;;5024013;28;20229;-54
2023/04/11 04:17:02;;;;;;;1294.47;124.07;;;8.70;99.90;;;;;;5030353;28;20667;-53
2023/04/11 04:19:30;;;;;;;373.40;71.60;;;8.70;99.90;;;;;;5029829;28;20292;-54
2023/04/11 04:21:58;;;;;;;312.57;60.53;;;8.60;99.90;;;;;;5029472;28;20256;-53
2023/04/11 04:24:28;;;;;;;246.37;27.17;;;8.70;99.90;;;;;;5029772;28;20226;-54
2023/04/11 04:26:59;;;;;;;313.70;54.30;;;8.60;99.90;;;;;;5015831;28;20273;-53
2023/04/11 04:29:32;;;;;;;1053.53;131.77;;;8.60;99.90;;;;;;5029275;28;20211;-53
2023/04/11 04:32:09;;;;;;;94.83;39.17;;;8.50;99.90;;;;;;5026948;28;20224;-53
2023/04/11 04:34:45;;;;;;;224.70;49.63;;;8.50;99.90;;;;;;5028271;28;20202;-53
2023/04/11 04:37:20;;;;;;;155.60;33.77;;;8.50;99.90;;;;;;5028436;28;20297;-54
2023/04/11 04:39:53;;;;;;;527.87;88.80;;;8.60;99.90;;;;;;5029058;28;20580;-53
2023/04/11 04:42:22;;;;;;;590.87;98.17;;;8.60;99.90;;;;;;5028845;28;20256;-54
2023/04/11 04:44:51;;;;;;;249.60;51.80;;;8.60;99.90;;;;;;5029526;28;20260;-54
2023/04/11 04:47:23;;;;;;;394.70;62.53;;;8.60;99.90;;;;;;5028814;28;20202;-55
2023/04/11 04:49:55;;;;;;;308.00;45.53;;;8.60;99.90;;;;;;5029166;28;20207;-55
2023/04/11 04:52:24;;;;;;;230.00;52.40;;;8.60;99.90;;;;;;5024667;28;20206;-53
2023/04/11 04:54:52;;;;;;;435.17;67.67;;;8.60;99.90;;;;;;5016892;28;20207;-53
2023/04/11 04:57:20;;;;;;;105.07;18.53;;;8.60;99.90;;;;;;5029065;28;20211;-53
2023/04/11 04:59:48;;;;;;;199.63;41.80;;;8.60;99.90;;;;;;5022399;28;20256;-53
2023/04/11 05:02:17;;;;;;;38.60;18.00;;;8.60;99.90;;;;;;5028976;28;20268;-53
2023/04/11 05:04:47;;;;;;;32.77;17.70;;;8.60;99.90;;;;;;5028947;28;20702;-53
2023/04/11 05:07:15;;;;;;;237.83;47.53;;;8.50;99.90;;;;;;5028978;28;20209;-54
2023/04/11 05:09:43;;;;;;;380.07;74.33;;;8.50;99.90;;;;;;5028632;28;20229;-53
2023/04/11 05:12:12;;;;;;;246.80;48.77;;;8.50;99.90;;;;;;5026835;28;20273;-54
2023/04/11 05:14:40;;;;;;;334.73;72.77;;;8.50;99.90;;;;;;5028630;28;20224;-52
2023/04/11 05:17:08;;;;;;;255.17;51.23;;;8.50;99.90;;;;;;5028456;28;20252;-55
2023/04/11 05:19:36;;;;;;;422.43;71.80;;;8.70;99.90;;;;;;5028713;28;20643;-54
2023/04/11 05:22:06;;;;;;;691.63;119.97;;;9.00;99.90;;;;;;5028647;28;20292;-54
2023/04/11 05:24:34;;;;;;;464.00;80.37;;;9.20;99.90;;;;;;5028063;28;20316;-54
2023/04/11 05:27:02;;;;;;;212.07;53.60;;;9.30;99.90;;;;;;5028341;28;20657;-54
2023/04/11 05:29:30;;;;;;;110.80;46.47;;;9.30;99.90;;;;;;5028100;28;20676;-54
2023/04/11 05:31:58;;;;;;;1416.53;199.70;;;9.50;99.90;;;;;;5027901;28;20222;-53
2023/04/11 05:34:29;;;;;;;940.57;203.57;;;9.60;99.90;;;;;;5028048;28;20234;-53
2023/04/11 05:36:57;;;;;;;65.27;38.57;;;9.40;99.90;;;;;;5028271;28;20244;-54
2023/04/11 05:39:26;;;;;;;465.93;106.97;;;9.20;99.90;;;;;;5028733;28;20638;-53
2023/04/11 05:41:55;;;;;;;46.83;24.73;;;9.10;99.90;;;;;;5028103;28;20237;-54
2023/04/11 05:44:23;;;;;;;121.57;57.00;;;9.00;99.90;;;;;;5028304;28;20661;-54
2023/04/11 05:46:51;;;;;;;476.97;113.63;;;9.00;99.90;;;;;;5028145;28;20273;-54
2023/04/11 05:49:19;;;;;;;223.90;53.67;;;9.00;99.90;;;;;;5028011;28;20214;-54
2023/04/11 05:51:47;;;;;;;1937.30;341.83;;;9.00;99.90;;;;;;5027734;28;20439;-54
2023/04/11 05:54:33;;;;;;;1999.90;479.00;;;9.30;99.90;;;;;;5028205;28;20230;-55
2023/04/11 05:57:02;;;;;;;1999.90;625.30;;;9.50;99.90;;;;;;5028572;28;20210;-54
2023/04/11 05:59:31;;;;;;;1999.90;438.47;;;9.70;99.90;;;;;;5028284;28;20244;-54
2023/04/11 06:01:59;;;;;;;1462.93;346.60;;;9.40;99.90;;;;;;5027608;28;20294;-54
2023/04/11 06:04:27;;;;;;;1245.80;223.17;;;9.40;99.90;;;;;;5027664;28;20842;-53
2023/04/11 06:06:56;;;;;;;1992.77;363.57;;;9.80;99.90;;;;;;5028074;28;20218;-55
2023/04/11 06:09:24;;;;;;;1999.90;555.00;;;10.20;99.90;;;;;;5025953;28;20324;-54
2023/04/11 06:11:53;;;;;;;1999.90;430.80;;;10.30;99.90;;;;;;5018584;28;20859;-53
2023/04/11 06:14:21;;;;;;;1725.03;316.33;;;10.50;99.90;;;;;;5023074;28;20229;-55
2023/04/11 06:16:49;;;;;;;1340.67;221.77;;;10.30;99.90;;;;;;5027876;28;20669;-55
2023/04/11 06:19:17;;;;;;;1999.90;546.37;;;10.10;99.90;;;;;;5027988;28;20530;-54
2023/04/11 06:21:45;;;;;;;942.97;193.47;;;9.90;99.90;;;;;;5028037;28;20206;-53
2023/04/11 06:24:16;;;;;;;1999.90;513.60;;;9.70;99.90;;;;;;5027880;28;20234;-54
2023/04/11 06:26:45;;;;;;;1999.80;332.40;;;9.60;99.90;;;;;;5027757;28;20673;-55
2023/04/11 06:29:14;;;;;;;1155.63;245.20;;;9.60;99.90;;;;;;5027679;28;20246;-54
2023/04/11 06:31:42;;;;;;;346.60;87.03;;;9.50;99.90;;;;;;5027235;28;20811;-54
2023/04/11 06:34:11;;;;;;;838.27;224.17;;;9.50;99.90;;;;;;5027405;28;20227;-54
2023/04/11 06:36:41;;;;;;;1015.23;230.37;;;9.50;99.90;;;;;;5027683;28;20723;-54
2023/04/11 06:39:09;;;;;;;1812.37;328.60;;;9.40;99.90;;;;;;5027661;28;20214;-54
2023/04/11 06:41:37;;;;;;;1999.90;367.73;;;9.40;99.90;;;;;;5027854;28;20640;-53
2023/04/11 06:44:05;;;;;;;1068.83;207.93;;;9.50;99.90;;;;;;5027537;28;20320;-54
2023/04/11 06:46:35;;;;;;;1213.90;171.67;;;9.60;99.90;;;;;;5027772;28;20260;-53
2023/04/11 06:49:06;;;;;;;1251.10;152.33;;;9.60;99.90;;;;;;5027282;28;20688;-54
2023/04/11 06:51:34;;;;;;;853.80;178.10;;;9.50;99.90;;;;;;5026907;28;20254;-53
2023/04/11 06:54:02;;;;;;;1267.67;237.53;;;9.40;99.90;;;;;;5027680;28;20226;-54
2023/04/11 06:56:30;;;;;;;1999.90;797.20;;;9.40;99.90;;;;;;5027905;28;20210;-54
2023/04/11 06:58:58;;;;;;;1999.90;802.33;;;9.20;99.90;;;;;;5027382;28;20276;-53
2023/04/11 07:01:34;;;;;;;1253.73;241.97;;;9.20;99.90;;;;;;5027505;28;20286;-53
2023/04/11 07:04:04;;;;;;;1999.90;567.83;;;8.90;99.90;;;;;;5028743;28;20311;-54
2023/04/11 07:06:34;;;;;;;1999.90;483.70;;;8.70;99.90;;;;;;5031615;28;20206;-54
2023/04/11 07:09:02;;;;;;;164.87;38.87;;;8.50;99.90;;;;;;5030741;28;20206;-55
2023/04/11 07:11:31;;;;;;;547.63;106.80;;;8.50;99.90;;;;;;5030898;28;20316;-55
2023/04/11 07:13:59;;;;;;;149.93;35.83;;;8.40;99.90;;;;;;5028298;28;20262;-54
2023/04/11 07:16:28;;;;;;;727.20;167.00;;;8.50;99.90;;;;;;5026509;28;20649;-53
2023/04/11 07:18:56;;;;;;;432.13;105.67;;;8.70;99.90;;;;;;5028801;28;20683;-55
2023/04/11 07:21:26;;;;;;;328.60;86.43;;;8.80;99.90;;;;;;5030719;28;20206;-53
2023/04/11 07:23:54;;;;;;;267.57;66.60;;;8.90;99.90;;;;;;5023901;28;20340;-55
2023/04/11 07:26:25;;;;;;;510.83;110.63;;;9.10;99.90;;;;;;5029724;28;20213;-53
2023/04/11 07:28:54;;;;;;;668.57;87.50;;;9.30;99.90;;;;;;5015326;28;20206;-51
2023/04/11 07:31:23;;;;;;;1999.90;660.90;;;9.40;99.90;;;;;;5025192;28;20256;-54
2023/04/11 07:33:52;;;;;;;1999.90;598.10;;;9.40;99.90;;;;;;5029330;28;20226;-54
2023/04/11 07:36:20;;;;;;;1042.73;214.37;;;9.40;99.90;;;;;;5030193;28;20264;-53
2023/04/11 07:38:51;;;;;;;1702.00;293.10;;;9.40;99.90;;;;;;5033496;28;20767;-55
2023/04/11 07:41:19;;;;;;;1999.90;309.97;;;9.30;99.90;;;;;;5029558;28;20221;-53
2023/04/11 07:43:47;;;;;;;1468.03;261.83;;;9.20;99.90;;;;;;5027833;28;20237;-54
2023/04/11 07:46:15;;;;;;;1999.90;380.63;;;9.10;99.90;;;;;;5029637;28;20233;-53
2023/04/11 07:48:43;;;;;;;408.13;84.73;;;8.90;99.90;;;;;;5030104;28;20210;-54
2023/04/11 07:51:12;;;;;;;1574.47;200.13;;;8.90;99.90;;;;;;5030198;28;20206;-54
2023/04/11 07:53:40;;;;;;;1999.90;378.13;;;9.00;99.90;;;;;;5029308;28;20651;-54
2023/04/11 07:56:10;;;;;;;1999.90;369.40;;;9.00;99.90;;;;;;5029609;28;20202;-54
2023/04/11 07:58:38;;;;;;;801.40;151.63;;;9.10;99.90;;;;;;5029738;28;20210;-54
2023/04/11 08:01:08;;;;;;;1570.50;289.93;;;9.30;99.90;;;;;;5029622;28;20256;-54
2023/04/11 08:03:37;;;;;;;1999.90;366.97;;;9.40;99.90;;;;;;5028557;28;20226;-54
2023/04/11 08:06:06;;;;;;;1167.70;238.60;;;9.80;99.90;;;;;;5029617;28;20250;-54
2023/04/11 08:08:35;;;;;;;1999.90;614.13;;;10.00;99.90;;;;;;5029102;28;20835;-55
2023/04/11 08:11:03;;;;;;;1999.90;444.43;;;10.00;99.90;;;;;;5027887;28;20218;-54
2023/04/11 08:13:32;;;;;;;1999.90;514.07;;;10.10;99.90;;;;;;5028646;28;20253;-54
2023/04/11 08:16:00;;;;;;;1999.90;661.63;;;10.00;99.90;;;;;;5027818;28;20665;-54
2023/04/11 08:18:28;;;;;;;1999.90;376.27;;;10.00;99.90;;;;;;5028991;28;20206;-54
2023/04/11 08:20:57;;;;;;;1898.60;386.27;;;10.00;99.90;;;;;;5028776;28;20237;-53
2023/04/11 08:23:25;;;;;;;1457.17;257.70;;;9.80;99.90;;;;;;5028801;28;20989;-55
2023/04/11 08:25:53;;;;;;;1748.50;333.80;;;9.70;99.90;;;;;;5028473;28;20264;-54
2023/04/11 08:28:21;;;;;;;1930.70;360.63;;;9.60;99.90;;;;;;5028245;28;20226;-53
2023/04/11 08:30:53;;;;;;;384.77;93.83;;;9.40;99.90;;;;;;5027525;28;20284;-54
2023/04/11 08:33:24;;;;;;;389.77;95.43;;;9.70;99.90;;;;;;5028672;28;20284;-54
2023/04/11 08:35:53;;;;;;;1719.87;266.33;;;10.10;99.90;;;;;;5027107;28;20566;-54
2023/04/11 08:38:21;;;;;;;532.90;139.27;;;10.50;99.90;;;;;;5032994;28;20297;-55
2023/04/11 08:40:49;;;;;;;1498.83;251.67;;;10.70;99.90;;;;;;5028639;28;20689;-54
2023/04/11 08:43:17;;;;;;;1796.07;313.23;;;10.80;99.90;;;;;;5028918;28;20234;-54
2023/04/11 08:45:45;;;;;;;1999.90;620.57;;;11.00;99.90;;;;;;5028556;28;20202;-55
2023/04/11 08:48:15;;;;;;;1999.90;425.50;;;11.10;99.90;;;;;;5028992;28;20246;-55
2023/04/11 08:50:44;;;;;;;1999.90;601.00;;;11.30;99.90;;;;;;5030732;28;20268;-54
2023/04/11 08:53:14;;;;;;;1999.90;588.87;;;11.40;99.90;;;;;;5025572;28;20234;-55
2023/04/11 08:55:46;;;;;;;1471.77;271.07;;;11.60;99.90;;;;;;5028632;28;20285;-55
2023/04/11 08:58:15;;;;;;;1999.90;779.38;;;11.60;99.90;;;;;;5029921;28;20485;-54
2023/04/11 09:00:43;;;;;;;1999.90;829.97;;;11.70;99.90;;;;;;5027858;28;20742;-53
2023/04/11 09:03:13;;;;;;;1999.90;730.87;;;11.50;99.90;;;;;;5028207;28;20313;-54
2023/04/11 09:05:44;;;;;;;1999.90;581.27;;;11.50;99.90;;;;;;5027644;28;20225;-53
2023/04/11 09:08:14;;;;;;;1999.90;808.63;;;11.70;99.90;;;;;;5028778;28;20288;-54
2023/04/11 09:10:44;;;;;;;1999.90;685.57;;;11.80;99.90;;;;;;5020433;28;20824;-54
2023/04/11 09:13:21;;;;;;;1999.90;884.50;;;11.70;99.90;;;;;;5028482;28;20262;-55
2023/04/11 09:16:04;;;;;;;1999.90;838.37;;;12.00;99.90;;;;;;5028168;28;20264;-53
2023/04/11 09:18:33;;;;;;;1999.90;975.77;;;12.30;99.90;;;;;;5029032;28;20206;-53
2023/04/11 09:21:05;;;;;;;1999.90;810.90;;;12.20;99.90;;;;;;5026549;28;20206;-54
2023/04/11 09:23:33;;;;;;;1999.90;901.73;;;12.30;99.90;;;;;;5039378;28;20261;-54
2023/04/11 09:26:01;;;;;;;1999.90;769.13;;;12.30;99.90;;;;;;5027923;28;20290;-53
2023/04/11 09:28:41;;;;;;;1999.90;779.93;;;12.40;99.90;;;;;;5026381;28;20215;-54
2023/04/11 09:31:11;;;;;;;1999.90;946.23;;;12.50;99.90;;;;;;5028338;28;20210;-53
2023/04/11 09:33:51;;;;;;;1999.90;977.43;;;12.60;99.90;;;;;;5028032;28;20234;-55
2023/04/11 09:36:22;;;;;;;1999.90;805.70;;;12.60;99.90;;;;;;5028001;28;20573;-53
2023/04/11 09:38:50;;;;;;;1999.90;918.20;;;12.30;99.90;;;;;;5028477;28;20230;-53
2023/04/11 09:41:30;;;;;;;1999.90;999.90;;;12.40;99.90;;;;;;5027882;28;20212;-56
2023/04/11 09:43:59;;;;;;;1999.90;999.90;;;12.70;99.90;;;;;;5027490;28;20222;-54
2023/04/11 09:46:27;;;;;;;1999.90;999.90;;;12.90;99.90;;;;;;5027472;28;20739;-55
2023/04/11 09:48:55;;;;;;;1999.90;999.90;;;12.80;99.90;;;;;;5028229;28;20216;-53
2023/04/11 09:51:26;;;;;;;1999.90;931.20;;;12.60;99.90;;;;;;5026040;28;20216;-56
2023/04/11 09:54:04;;;;;;;1999.90;965.83;;;12.20;99.90;;;;;;5028377;28;20234;-53
2023/04/11 09:56:33;;;;;;;1999.90;925.67;;;12.10;99.90;;;;;;5025690;28;20202;-53
2023/04/11 09:59:03;;;;;;;1999.90;999.90;;;12.20;99.90;;;;;;5028130;28;20238;-54
2023/04/11 10:01:33;;;;;;;1999.90;793.47;;;12.40;99.90;;;;;;5023958;28;20293;-54
2023/04/11 10:04:03;;;;;;;1999.90;923.93;;;12.50;99.90;;;;;;5028402;28;20269;-53
2023/04/11 10:06:38;;;;;;;1999.90;894.30;;;12.50;99.90;;;;;;5027895;28;20238;-54
2023/04/11 10:09:08;;;;;;;1999.90;962.80;;;12.50;99.90;;;;;;5016311;28;20206;-54
2023/04/11 10:11:37;;;;;;;1999.90;999.90;;;12.50;99.90;;;;;;5023646;28;20217;-54
2023/04/11 10:14:05;;;;;;;1999.90;999.90;;;12.60;99.90;;;;;;5027291;28;20309;-52
2023/04/11 10:16:33;;;;;;;1999.90;999.90;;;13.00;99.90;;;;;;5026633;28;20298;-54
2023/04/11 10:19:24;;;;;;;1999.90;999.90;;;13.20;99.90;;;;;;5021861;28;20224;-54
2023/04/11 10:21:53;;;;;;;1999.90;999.90;;;13.10;99.90;;;;;;5022269;28;20236;-53
2023/04/11 10:24:22;;;;;;;1999.90;999.90;;;13.00;99.90;;;;;;5025582;28;20617;-54
2023/04/11 10:26:51;;;;;;;1999.90;999.90;;;12.80;99.90;;;;;;5027462;28;20205;-54
2023/04/11 10:29:51;;;;;;;1999.90;999.90;;;12.60;99.90;;;;;;5026773;28;20290;-56
2023/04/11 10:32:22;;;;;;;1999.90;999.90;;;12.60;99.90;;;;;;5027528;28;20230;-56
2023/04/11 10:35:29;;;;;;;1999.90;999.90;;;12.60;99.90;;;;;;5027480;28;21085;-55
2023/04/11 10:37:59;;;;;;;1999.90;999.90;;;12.60;99.90;;;;;;5025476;28;20272;-54
2023/04/11 10:40:27;;;;;;;1999.90;999.90;;;12.80;99.90;;;;;;5030893;28;20729;-53
2023/04/11 10:42:56;;;;;;;1999.90;999.90;;;12.70;99.90;;;;;;5030043;28;20226;-54
2023/04/11 10:45:25;;;;;;;1999.90;999.90;;;12.80;99.90;;;;;;5030416;28;20209;-55
2023/04/11 10:48:06;;;;;;;1999.90;999.90;;;12.70;99.90;;;;;;5030881;28;20206;-55
2023/04/11 10:50:40;;;;;;;1999.90;999.90;;;12.60;99.90;;;;;;5023720;28;20785;-55
2023/04/11 10:53:32;;;;;;;1999.90;999.90;;;12.50;99.90;;;;;;5030661;28;20226;-54
2023/04/11 10:56:01;;;;;;;1999.90;999.90;;;12.70;99.90;;;;;;5026756;28;20252;-55
2023/04/11 10:58:35;;;;;;;1999.90;999.90;;;12.80;99.90;;;;;;5030972;28;20214;-54
2023/04/11 11:01:18;;;;;;;1999.90;999.90;;;12.80;99.90;;;;;;5022862;28;20213;-54
2023/04/11 11:04:04;;;;;;;1999.90;999.90;;;12.90;99.90;;;;;;5026919;28;20218;-54
2023/04/11 11:06:34;;;;;;;1999.90;999.90;;;12.90;99.90;;;;;;5030693;28;20214;-54
2023/04/11 11:09:24;;;;;;;1999.90;999.90;;;13.00;99.90;;;;;;5031325;28;20218;-54
2023/04/11 11:12:06;;;;;;;1999.90;999.90;;;13.00;99.90;;;;;;5030928;28;20233;-55
2023/04/11 11:14:34;;;;;;;1999.90;999.90;;;12.80;99.90;;;;;;5030430;28;20266;-55
2023/04/11 11:17:02;;;;;;;1999.90;999.90;;;12.80;99.90;;;;;;5029270;28;20264;-54
2023/04/11 11:19:31;;;;;;;1999.90;999.90;;;13.00;99.90;;;;;;5030287;28;20206;-53
2023/04/11 11:22:02;;;;;;;1999.90;999.90;;;13.10;99.90;;;;;;5030675;28;20210;-54
2023/04/11 11:24:32;;;;;;;1999.90;999.90;;;13.10;99.90;;;;;;5030751;28;20272;-53
2023/04/11 11:27:00;;;;;;;1999.90;999.90;;;13.10;99.90;;;;;;5030664;28;20285;-54
2023/04/11 11:29:33;;;;;;;1999.90;999.90;;;13.10;99.90;;;;;;5030890;28;20296;-55
2023/04/11 11:32:02;;;;;;;1999.90;999.90;;;13.00;99.90;;;;;;5031276;28;20244;-53
2023/04/11 11:34:32;;;;;;;1999.90;999.90;;;13.10;99.90;;;;;;5030956;28;20234;-53
2023/04/11 11:37:03;;;;;;;1999.90;837.73;;;13.20;99.90;;;;;;5030701;28;20248;-54
2023/04/11 11:39:34;;;;;;;1999.90;999.90;;;13.60;99.90;;;;;;5030593;28;20208;-55
2023/04/11 11:42:02;;;;;;;1999.90;999.90;;;14.00;99.90;;;;;;5030594;28;20836;-55
2023/04/11 11:44:31;;;;;;;1999.90;999.90;;;14.30;99.90;;;;;;5030644;28;20226;-55
2023/04/11 11:47:03;;;;;;;1999.90;999.90;;;14.50;99.90;;;;;;5030634;28;20692;-54
2023/04/11 11:49:45;;;;;;;1999.90;999.90;;;14.30;99.90;;;;;;5030153;28;20285;-55
2023/04/11 11:52:29;;;;;;;1999.90;999.90;;;14.20;99.90;;;;;;5029853;28;20702;-55
2023/04/11 11:54:59;;;;;;;1999.90;999.90;;;14.20;99.90;;;;;;5019281;28;20288;-54
2023/04/11 11:57:27;;;;;;;1999.90;999.90;;;14.10;99.90;;;;;;5028725;28;20672;-53
2023/04/11 11:59:56;;;;;;;1999.90;999.90;;;14.10;99.90;;;;;;5030319;28;20203;-54
2023/04/11 12:02:26;;;;;;;1999.90;999.90;;;14.00;99.90;;;;;;5029715;28;20245;-53
2023/04/11 12:04:58;;;;;;;1999.90;999.90;;;13.90;99.90;;;;;;5029366;28;20499;-54
2023/04/11 12:07:31;;;;;;;1999.90;999.90;;;13.70;99.90;;;;;;5030313;28;20221;-53
2023/04/11 12:10:01;;;;;;;1999.90;999.90;;;13.60;99.90;;;;;;5027860;28;20683;-55
2023/04/11 12:12:35;;;;;;;1999.90;999.90;;;13.50;99.90;;;;;;5029858;28;20775;-54
2023/04/11 12:15:03;;;;;;;1999.90;999.90;;;13.40;99.90;;;;;;5027401;28;20668;-55
2023/04/11 12:17:34;;;;;;;1999.90;999.90;;;13.40;99.90;;;;;;5029902;28;20244;-55
2023/04/11 12:20:06;;;;;;;1999.90;999.90;;;13.50;99.90;;;;;;5025753;28;20716;-53
2023/04/11 12:22:35;;;;;;;1999.90;999.90;;;13.60;99.90;;;;;;5026560;28;20234;-54
2023/04/11 12:25:09;;;;;;;1999.90;999.90;;;13.70;99.90;;;;;;5028394;28;20285;-54